Time;durP1;ratioP1;P1;durP2;ratioP2;P2;SDS_P1;SDS_P2;PMS_P1;PMS_P2;Temp;Humidity;BMP_temperature;BMP_pressure;BME280_temperature;BME280_humidity;BME280_pressure;Samples;Min_cycle;Max_cycle;Signal;HPM_P1;HPM_P2
2022/11/17 00:01:07;;;;;;;8.25;5.97;;;8.60;99.90;;;;;;4943911;28;20038;-81
2022/11/17 00:03:33;;;;;;;12.10;8.32;;;7.60;99.90;;;;;;4964481;28;20041;-81
2022/11/17 00:06:03;;;;;;;11.60;9.07;;;8.20;99.90;;;;;;4977851;28;20241;-79
2022/11/17 00:08:35;;;;;;;11.43;7.32;;;8.40;99.90;;;;;;4968698;28;20096;-79
2022/11/17 00:11:03;;;;;;;15.60;8.38;;;8.30;99.90;;;;;;4992982;28;20038;-78
2022/11/17 00:17:34;;;;;;;11.57;8.52;;;8.60;99.90;;;;;;4943771;28;20117;-76
2022/11/17 00:22:43;;;;;;;12.40;8.77;;;8.20;99.90;;;;;;4929194;29;20246;-78
2022/11/17 00:25:09;;;;;;;11.48;8.57;;;8.20;99.90;;;;;;4943917;28;20069;-78
2022/11/17 00:27:35;;;;;;;11.15;7.13;;;8.40;99.90;;;;;;4915988;28;20078;-80
2022/11/17 00:30:00;;;;;;;14.70;9.48;;;9.10;99.90;;;;;;4946043;28;20110;-80
2022/11/17 00:35:10;;;;;;;10.38;7.45;;;8.30;99.90;;;;;;4973075;28;20047;-78
2022/11/17 00:37:38;;;;;;;13.82;7.97;;;8.30;99.90;;;;;;4950406;28;20031;-80
2022/11/17 00:40:07;;;;;;;10.30;6.68;;;8.30;99.90;;;;;;4947325;28;20042;-80
2022/11/17 00:42:32;;;;;;;11.10;8.13;;;8.20;99.90;;;;;;4943540;29;20052;-80
2022/11/17 00:45:01;;;;;;;8.75;6.93;;;8.20;99.90;;;;;;4940560;28;20107;-79
2022/11/17 00:47:27;;;;;;;12.23;8.77;;;7.90;99.90;;;;;;4947413;28;20026;-80
2022/11/17 00:49:53;;;;;;;10.02;6.43;;;;;;;;;;4936843;29;20031;-79
2022/11/17 00:52:26;;;;;;;14.30;9.65;;;7.60;99.90;;;;;;4958068;28;20034;-78
2022/11/17 00:54:52;;;;;;;10.45;7.10;;;;;;;;;;4925992;28;20063;-77
2022/11/17 00:57:17;;;;;;;11.25;7.13;;;7.80;99.90;;;;;;4959979;28;20082;-78
2022/11/17 00:59:43;;;;;;;12.68;9.35;;;8.40;99.90;;;;;;4926367;29;20360;-77
2022/11/17 01:02:09;;;;;;;15.98;8.73;;;;;;;;;;4922701;28;20046;-78
2022/11/17 01:04:35;;;;;;;13.38;8.20;;;;;;;;;;4949966;28;20058;-79
2022/11/17 01:07:01;;;;;;;10.45;6.90;;;8.00;99.90;;;;;;4937141;28;20089;-78
2022/11/17 01:09:27;;;;;;;9.50;6.72;;;;;;;;;;4937709;29;20110;-79
2022/11/17 01:11:53;;;;;;;8.80;7.18;;;;;;;;;;4963396;28;20053;-79
2022/11/17 01:14:29;;;;;;;9.63;6.45;;;8.20;99.90;;;;;;4948023;29;20063;-79
2022/11/17 01:17:31;;;;;;;10.18;5.90;;;7.90;99.90;;;;;;4944666;28;20342;-77
2022/11/17 01:19:57;;;;;;;9.68;7.10;;;6.90;99.90;;;;;;4951917;28;20069;-77
2022/11/17 01:22:38;;;;;;;12.98;6.95;;;;;;;;;;4973974;28;20042;-79
2022/11/17 01:25:40;;;;;;;;;;;;;;;;;;;;;
2022/11/17 01:28:15;;;;;;;11.60;7.60;;;7.60;99.90;;;;;;4939794;29;20040;-78
2022/11/17 01:31:23;;;;;;;9.10;6.22;;;7.80;99.90;;;;;;4963970;28;20042;-78
2022/11/17 01:33:52;;;;;;;11.77;8.23;;;;;;;;;;4940706;28;20289;-78
2022/11/17 01:39:20;;;;;;;12.73;8.10;;;7.90;99.90;;;;;;4965986;28;20050;-79
2022/11/17 01:41:45;;;;;;;9.27;7.00;;;7.80;99.90;;;;;;4961648;28;20404;-79
2022/11/17 01:44:48;;;;;;;10.27;7.00;;;7.50;99.90;;;;;;4954507;28;20042;-78
2022/11/17 01:47:19;;;;;;;10.93;7.25;;;7.30;99.90;;;;;;4964254;28;20035;-79
2022/11/17 01:49:46;;;;;;;9.30;6.43;;;7.70;99.90;;;;;;4956811;29;20046;-79
2022/11/17 01:52:12;;;;;;;10.10;7.03;;;;;;;;;;4933393;28;20031;-78
2022/11/17 01:54:42;;;;;;;10.95;7.75;;;8.20;99.90;;;;;;4947881;28;20385;-79
2022/11/17 01:57:23;;;;;;;9.38;6.85;;;7.80;99.90;;;;;;4961344;28;20096;-79
2022/11/17 01:59:56;;;;;;;12.40;9.13;;;7.40;99.90;;;;;;4970143;28;20230;-78
2022/11/17 02:02:22;;;;;;;12.57;7.75;;;7.80;99.90;;;;;;4964329;28;20038;-78
2022/11/17 02:05:13;;;;;;;11.57;6.68;;;8.00;99.90;;;;;;4935559;28;20026;-78
2022/11/17 02:08:05;;;;;;;8.65;6.18;;;7.90;99.90;;;;;;4961941;28;20035;-78
2022/11/17 02:10:33;;;;;;;9.88;6.85;;;7.80;99.90;;;;;;4955868;28;20046;-79
2022/11/17 02:13:00;;;;;;;9.70;6.53;;;7.40;99.90;;;;;;4942767;28;20031;-79
2022/11/17 02:15:28;;;;;;;11.93;7.75;;;8.60;99.90;;;;;;4958983;28;20053;-79
2022/11/17 02:18:01;;;;;;;12.07;7.05;;;7.20;99.90;;;;;;4980036;28;20137;-78
2022/11/17 02:20:27;;;;;;;7.90;6.30;;;7.40;99.90;;;;;;4948996;28;20085;-79
2022/11/17 02:23:11;;;;;;;8.20;5.95;;;8.00;99.90;;;;;;4972726;28;20038;-79
2022/11/17 02:25:52;;;;;;;9.50;5.63;;;8.80;99.90;;;;;;4957194;28;20274;-78
2022/11/17 02:28:25;;;;;;;8.25;6.15;;;7.80;99.90;;;;;;4982038;28;20616;-78
2022/11/17 02:31:29;;;;;;;10.95;6.90;;;8.10;99.90;;;;;;4952717;28;20306;-78
2022/11/17 02:34:24;;;;;;;7.10;5.78;;;8.00;99.90;;;;;;4963098;28;20030;-78
2022/11/17 02:37:19;;;;;;;8.02;5.88;;;7.40;99.90;;;;;;4954728;28;20035;-78
2022/11/17 02:40:03;;;;;;;9.00;6.88;;;8.30;99.90;;;;;;4961693;28;20286;-79
2022/11/17 02:45:50;;;;;;;10.07;7.18;;;8.70;99.90;;;;;;4972994;28;20042;-79
2022/11/17 02:48:36;;;;;;;8.57;6.70;;;7.80;99.90;;;;;;4940037;28;20058;-79
2022/11/17 02:51:04;;;;;;;10.40;7.10;;;7.70;99.90;;;;;;4960453;28;20054;-79
2022/11/17 02:53:30;;;;;;;7.10;6.38;;;7.50;99.90;;;;;;4958883;28;20257;-79
2022/11/17 02:55:59;;;;;;;12.82;9.15;;;7.30;99.90;;;;;;4967856;28;20043;-79
2022/11/17 02:58:25;;;;;;;11.45;7.90;;;7.80;99.90;;;;;;4948692;28;20298;-80
2022/11/17 03:01:22;;;;;;;12.60;7.32;;;7.90;99.90;;;;;;4946945;28;20039;-79
2022/11/17 03:04:21;;;;;;;12.80;7.82;;;8.00;99.90;;;;;;4898701;29;20239;-80
2022/11/17 03:07:17;;;;;;;9.55;7.15;;;7.80;99.90;;;;;;4922738;29;20052;-80
2022/11/17 03:09:55;;;;;;;10.43;8.30;;;7.90;99.90;;;;;;4893286;29;20032;-78
2022/11/17 03:12:47;;;;;;;10.02;6.65;;;7.50;99.90;;;;;;4896859;29;20040;-80
2022/11/17 03:15:25;;;;;;;11.75;8.77;;;8.10;99.90;;;;;;4904837;29;20123;-79
2022/11/17 03:17:51;;;;;;;10.02;7.45;;;;;;;;;;4887382;29;20056;-77
2022/11/17 03:20:33;;;;;;;10.93;8.88;;;7.90;99.90;;;;;;4906557;29;20058;-78
2022/11/17 03:26:06;;;;;;;9.48;6.63;;;7.60;99.90;;;;;;4906176;29;20036;-81
2022/11/17 03:28:32;;;;;;;11.82;7.07;;;7.70;99.90;;;;;;4910863;29;20156;-78
2022/11/17 03:31:00;;;;;;;10.35;7.22;;;7.70;99.90;;;;;;4919867;29;20389;-79
2022/11/17 03:33:27;;;;;;;8.45;6.80;;;7.50;99.90;;;;;;4906178;29;20096;-78
2022/11/17 03:36:05;;;;;;;11.60;7.13;;;7.50;99.90;;;;;;4957324;28;20065;-80
2022/11/17 03:38:36;;;;;;;10.77;7.65;;;7.70;99.90;;;;;;4960774;29;20338;-81
2022/11/17 03:41:07;;;;;;;9.63;7.53;;;7.40;99.90;;;;;;4960010;28;20042;-82
2022/11/17 03:43:37;;;;;;;13.30;7.43;;;7.50;99.90;;;;;;4968899;28;20050;-80
2022/11/17 03:46:09;;;;;;;12.82;7.68;;;7.40;99.90;;;;;;4947175;28;20129;-81
2022/11/17 03:48:54;;;;;;;10.93;8.18;;;6.90;99.90;;;;;;4944148;28;20039;-79
2022/11/17 03:51:27;;;;;;;9.57;6.60;;;7.60;99.90;;;;;;4967747;28;20091;-81
2022/11/17 03:53:54;;;;;;;10.70;7.28;;;7.20;99.90;;;;;;4966242;28;20058;-80
2022/11/17 03:56:49;;;;;;;11.20;7.38;;;7.60;99.90;;;;;;4930818;28;20046;-81
2022/11/17 03:59:52;;;;;;;8.85;7.32;;;7.00;99.90;;;;;;4944735;29;20035;-82
2022/11/17 04:02:19;;;;;;;11.55;7.00;;;7.60;99.90;;;;;;4958933;28;20043;-82
2022/11/17 04:05:04;;;;;;;10.85;7.03;;;;;;;;;;4943538;29;20069;-79
2022/11/17 04:07:30;;;;;;;11.55;7.43;;;;;;;;;;4976503;28;20064;-78
2022/11/17 04:09:56;;;;;;;9.15;7.07;;;7.30;99.90;;;;;;4957054;28;20217;-79
2022/11/17 04:17:51;;;;;;;9.27;7.38;;;;;;;;;;4960199;28;20062;-78
2022/11/17 04:20:17;;;;;;;8.63;6.95;;;7.50;99.90;;;;;;4954882;28;20079;-81
2022/11/17 04:23:05;;;;;;;13.18;9.55;;;7.00;99.90;;;;;;4944080;29;20234;-81
2022/11/17 04:28:38;;;;;;;11.82;9.10;;;7.70;99.90;;;;;;4960321;29;20051;-83
2022/11/17 04:31:09;;;;;;;9.95;7.03;;;7.00;99.90;;;;;;4940037;29;20034;-81
2022/11/17 04:33:36;;;;;;;10.93;7.53;;;7.60;99.90;;;;;;4938198;29;20275;-81
2022/11/17 04:36:03;;;;;;;10.02;7.35;;;7.60;99.90;;;;;;4937707;29;20038;-82
2022/11/17 04:38:29;;;;;;;11.35;8.25;;;;;;;;;;4947899;29;20195;-81
2022/11/17 04:43:50;;;;;;;10.27;7.82;;;;;;;;;;4956884;29;20047;-82
2022/11/17 04:46:21;;;;;;;9.40;7.45;;;6.90;99.90;;;;;;4942913;29;20035;-82
2022/11/17 04:52:20;;;;;;;9.80;6.55;;;;;;;;;;4958493;29;20270;-82
2022/11/17 04:54:46;;;;;;;12.57;10.13;;;7.70;99.90;;;;;;4959701;29;20491;-83
2022/11/17 04:57:12;;;;;;;10.70;8.93;;;;;;;;;;4928060;29;20043;-84
2022/11/17 04:59:40;;;;;;;7.95;6.40;;;;;;;;;;4943270;29;20066;-82
2022/11/17 05:02:09;;;;;;;9.65;7.45;;;;;;;;;;4963199;28;20047;-82
2022/11/17 05:07:20;;;;;;;12.48;7.78;;;;;;;;;;4978861;28;20060;-82
2022/11/17 05:09:46;;;;;;;12.65;9.35;;;;;;;;;;4947944;28;20035;-81
2022/11/17 05:15:08;;;;;;;9.82;7.72;;;6.80;99.90;;;;;;4954907;29;20038;-83
2022/11/17 05:17:34;;;;;;;11.88;9.38;;;;;;;;;;4950547;29;20051;-82
2022/11/17 05:20:00;;;;;;;11.50;8.55;;;;;;;;;;4961926;29;20023;-84
2022/11/17 05:25:11;;;;;;;12.90;10.48;;;;;;;;;;4961609;29;20047;-80
2022/11/17 05:27:37;;;;;;;14.50;7.55;;;;;;;;;;4951854;28;20027;-84
2022/11/17 05:30:35;;;;;;;11.30;7.80;;;6.60;99.90;;;;;;4960754;29;20065;-84
2022/11/17 05:33:07;;;;;;;10.07;6.65;;;6.80;99.90;;;;;;4932157;29;20047;-84
2022/11/17 05:35:36;;;;;;;8.90;6.95;;;;;;;;;;4919042;29;20184;-84
2022/11/17 05:38:17;;;;;;;10.57;7.93;;;7.20;99.90;;;;;;4962113;28;20093;-85
2022/11/17 05:40:43;;;;;;;10.88;7.57;;;8.80;99.90;;;;;;4962968;29;20031;-80
2022/11/17 05:43:12;;;;;;;9.13;6.90;;;7.40;99.90;;;;;;4946253;29;20058;-81
2022/11/17 05:45:40;;;;;;;8.90;6.70;;;7.00;99.90;;;;;;4956833;29;20106;-78
2022/11/17 05:48:06;;;;;;;8.70;7.22;;;6.60;99.90;;;;;;4945326;29;20150;-80
2022/11/17 05:50:31;;;;;;;8.50;7.13;;;6.70;99.90;;;;;;4926527;29;20106;-83
2022/11/17 05:52:59;;;;;;;8.68;6.32;;;7.60;99.90;;;;;;4941923;28;20035;-83
2022/11/17 05:55:27;;;;;;;8.02;5.53;;;6.70;99.90;;;;;;4939898;29;20023;-81
2022/11/17 05:57:55;;;;;;;8.52;5.82;;;8.80;99.90;;;;;;4961291;29;20039;-80
2022/11/17 06:00:21;;;;;;;7.70;6.35;;;7.10;99.90;;;;;;4937538;29;20066;-82
2022/11/17 06:03:07;;;;;;;6.78;5.88;;;7.10;99.90;;;;;;4959760;29;20039;-83
2022/11/17 06:05:33;;;;;;;8.30;6.80;;;7.20;99.90;;;;;;4936894;28;20288;-82
2022/11/17 06:08:01;;;;;;;7.38;5.68;;;6.40;99.90;;;;;;4929728;29;20284;-84
2022/11/17 06:10:37;;;;;;;9.30;6.85;;;6.80;99.90;;;;;;4947832;28;20047;-81
2022/11/17 06:13:11;;;;;;;8.13;5.82;;;7.10;99.90;;;;;;4963529;28;20385;-82
2022/11/17 06:15:37;;;;;;;6.67;5.23;;;5.00;99.90;;;;;;4942313;28;20047;-82
2022/11/17 06:18:16;;;;;;;6.38;4.80;;;7.10;99.90;;;;;;4949561;28;20305;-84
2022/11/17 06:20:47;;;;;;;6.75;4.78;;;7.10;99.90;;;;;;4951017;29;20058;-81
2022/11/17 06:23:16;;;;;;;10.70;8.82;;;6.50;99.90;;;;;;4947324;29;20038;-83
2022/11/17 06:25:42;;;;;;;8.05;6.00;;;6.20;99.90;;;;;;4958927;28;20031;-83
2022/11/17 06:28:12;;;;;;;8.32;5.75;;;6.80;99.90;;;;;;4963564;28;20102;-83
2022/11/17 06:30:41;;;;;;;8.30;6.10;;;7.20;99.90;;;;;;4955074;28;20031;-84
2022/11/17 06:33:46;;;;;;;7.55;4.88;;;7.90;99.90;;;;;;4962881;28;20098;-84
2022/11/17 06:36:15;;;;;;;8.82;5.65;;;5.70;99.90;;;;;;4929693;28;20039;-81
2022/11/17 06:38:41;;;;;;;6.50;4.72;;;7.40;99.90;;;;;;4954596;28;20360;-83
2022/11/17 06:41:06;;;;;;;9.07;6.43;;;6.50;99.90;;;;;;4944280;28;20210;-82
2022/11/17 06:43:32;;;;;;;8.85;5.63;;;4.60;99.90;;;;;;4939932;29;20377;-83
2022/11/17 06:46:04;;;;;;;7.13;4.88;;;6.50;99.90;;;;;;4962549;29;20023;-84
2022/11/17 06:48:34;;;;;;;6.28;5.18;;;7.00;99.90;;;;;;4956499;29;20043;-83
2022/11/17 06:51:03;;;;;;;6.72;5.38;;;7.50;99.90;;;;;;4958971;29;20044;-82
2022/11/17 06:53:30;;;;;;;7.18;6.03;;;6.70;99.90;;;;;;4937732;29;20203;-83
2022/11/17 06:56:16;;;;;;;6.15;4.63;;;6.90;99.90;;;;;;4960807;29;20266;-84
2022/11/17 06:58:41;;;;;;;5.97;4.22;;;9.60;99.90;;;;;;4947197;29;20046;-83
2022/11/17 07:01:10;;;;;;;7.00;4.97;;;7.00;99.90;;;;;;4953751;29;20028;-82
2022/11/17 07:03:37;;;;;;;6.25;4.75;;;8.00;99.90;;;;;;4945518;29;20043;-82
2022/11/17 07:06:05;;;;;;;7.93;5.63;;;7.50;99.90;;;;;;4959794;29;20031;-83
2022/11/17 07:08:34;;;;;;;7.85;5.60;;;7.00;99.90;;;;;;4938454;29;20043;-82
2022/11/17 07:11:21;;;;;;;9.30;6.75;;;7.50;99.90;;;;;;4956407;29;20266;-84
2022/11/17 07:13:47;;;;;;;5.15;3.95;;;6.90;99.90;;;;;;4930969;29;20051;-84
2022/11/17 07:16:20;;;;;;;7.32;5.63;;;7.20;99.90;;;;;;4944758;29;20039;-84
2022/11/17 07:18:46;;;;;;;7.28;4.80;;;6.60;99.90;;;;;;4956948;28;20070;-82
2022/11/17 07:21:14;;;;;;;6.60;5.13;;;7.10;99.90;;;;;;4960350;29;20050;-83
2022/11/17 07:23:43;;;;;;;7.88;5.38;;;6.60;99.90;;;;;;4959526;29;20031;-84
2022/11/17 07:26:09;;;;;;;5.63;4.65;;;7.00;99.90;;;;;;4951060;29;20028;-85
2022/11/17 07:28:35;;;;;;;6.57;4.40;;;7.50;99.90;;;;;;4937377;29;20036;-82
2022/11/17 07:31:16;;;;;;;8.25;5.43;;;7.30;99.90;;;;;;4945227;29;20050;-83
2022/11/17 07:33:45;;;;;;;5.80;4.20;;;6.70;99.90;;;;;;4957022;29;20031;-83
2022/11/17 07:36:15;;;;;;;6.68;4.97;;;8.50;99.90;;;;;;4928583;29;20329;-84
2022/11/17 07:38:41;;;;;;;5.43;3.97;;;7.30;99.90;;;;;;4940839;29;20049;-84
2022/11/17 07:41:16;;;;;;;7.85;4.72;;;6.70;99.90;;;;;;4961019;29;20042;-84
2022/11/17 07:43:42;;;;;;;4.25;3.55;;;7.60;99.90;;;;;;4911959;29;20078;-83
2022/11/17 07:46:11;;;;;;;5.32;3.97;;;7.20;99.90;;;;;;4923531;29;20284;-83
2022/11/17 07:48:46;;;;;;;7.07;4.00;;;7.40;99.90;;;;;;4961964;29;20046;-82
2022/11/17 07:51:12;;;;;;;5.95;4.75;;;7.00;99.90;;;;;;4942884;29;20054;-83
2022/11/17 07:54:27;;;;;;;;;;;;;;;;;;;;;
2022/11/17 07:56:55;;;;;;;5.63;3.90;;;7.00;99.90;;;;;;4885138;29;20052;-83
2022/11/17 07:59:21;;;;;;;4.75;3.55;;;6.00;99.90;;;;;;4936164;29;20035;-83
2022/11/17 08:01:47;;;;;;;6.45;4.68;;;7.20;99.90;;;;;;4941029;29;20058;-83
2022/11/17 08:04:50;;;;;;;6.10;4.10;;;8.40;99.90;;;;;;4942318;29;20234;-83
2022/11/17 08:07:19;;;;;;;6.43;4.40;;;6.30;99.90;;;;;;4942085;29;20094;-82
2022/11/17 08:09:45;;;;;;;4.95;3.00;;;6.10;99.90;;;;;;4943577;29;20070;-83
2022/11/17 08:12:11;;;;;;;4.90;3.55;;;6.80;99.90;;;;;;4943177;29;20094;-83
2022/11/17 08:14:39;;;;;;;6.40;4.65;;;6.00;99.90;;;;;;4924841;29;20250;-83
2022/11/17 08:17:08;;;;;;;4.25;3.22;;;7.70;99.90;;;;;;4960119;28;20254;-82
2022/11/17 08:19:34;;;;;;;4.55;2.95;;;9.40;99.90;;;;;;4949285;28;20051;-82
2022/11/17 08:22:25;;;;;;;4.70;3.00;;;7.00;99.90;;;;;;4965811;28;20030;-82
2022/11/17 08:24:51;;;;;;;7.07;4.32;;;;;;;;;;4942550;28;20035;-83
2022/11/17 08:27:17;;;;;;;6.07;4.75;;;7.40;99.90;;;;;;4958050;29;20106;-81
2022/11/17 08:29:43;;;;;;;5.03;4.05;;;;;;;;;;4961348;28;20037;-82
2022/11/17 08:32:09;;;;;;;6.15;4.22;;;;;;;;;;4951176;28;20053;-82
2022/11/17 08:34:35;;;;;;;5.00;3.00;;;;;;;;;;4983733;28;20038;-81
2022/11/17 08:37:01;;;;;;;5.20;3.65;;;;;;;;;;4954032;28;20049;-82
2022/11/17 08:39:27;;;;;;;5.82;3.78;;;7.50;99.90;;;;;;4945286;28;20042;-81
2022/11/17 08:41:53;;;;;;;7.07;3.58;;;;;;;;;;4964795;28;20039;-82
2022/11/17 08:44:20;;;;;;;4.88;3.60;;;;;;;;;;4963822;28;20023;-82
2022/11/17 08:46:45;;;;;;;6.07;3.40;;;6.30;99.90;;;;;;4965466;29;20039;-82
2022/11/17 08:49:11;;;;;;;5.63;4.35;;;;;;;;;;4967140;28;20030;-82
2022/11/17 08:51:38;;;;;;;6.00;4.47;;;;;;;;;;4950104;29;20027;-82
2022/11/17 08:54:03;;;;;;;6.40;4.75;;;6.60;99.90;;;;;;4968234;28;20045;-81
2022/11/17 08:56:30;;;;;;;5.63;3.65;;;;;;;;;;4960377;28;20031;-81
2022/11/17 08:59:27;;;;;;;5.72;3.67;;;6.40;99.90;;;;;;4956977;28;20225;-83
2022/11/17 09:01:53;;;;;;;6.13;4.13;;;;;;;;;;4975627;28;20054;-82
2022/11/17 09:04:19;;;;;;;5.22;4.38;;;7.30;99.90;;;;;;4953774;28;20027;-82
2022/11/17 09:06:45;;;;;;;5.35;3.70;;;7.00;99.90;;;;;;4933219;28;20047;-82
2022/11/17 09:09:10;;;;;;;4.97;4.10;;;7.50;99.90;;;;;;4967834;28;20026;-80
2022/11/17 09:11:39;;;;;;;6.45;4.43;;;7.00;99.90;;;;;;4972947;28;20446;-81
2022/11/17 09:17:22;;;;;;;6.70;4.68;;;6.50;99.90;;;;;;4996271;28;20332;-83
2022/11/17 09:19:48;;;;;;;11.45;7.43;;;;;;;;;;4967815;28;20077;-83
2022/11/17 09:22:14;;;;;;;6.25;3.92;;;7.00;99.90;;;;;;4981821;28;20333;-82
2022/11/17 09:24:39;;;;;;;5.30;3.88;;;7.00;99.90;;;;;;4965127;29;20031;-84
2022/11/17 09:27:10;;;;;;;5.65;4.40;;;7.10;99.90;;;;;;4951748;28;20064;-85
2022/11/17 09:29:36;;;;;;;6.45;4.68;;;6.90;99.90;;;;;;4949769;29;20146;-82
2022/11/17 09:32:02;;;;;;;3.67;3.08;;;6.30;99.90;;;;;;4934567;28;20198;-82
2022/11/17 09:34:28;;;;;;;4.53;3.58;;;6.90;99.90;;;;;;4965234;29;20078;-82
2022/11/17 09:36:54;;;;;;;5.72;3.90;;;6.60;99.90;;;;;;4908701;28;20039;-82
2022/11/17 09:39:20;;;;;;;5.30;4.35;;;7.10;99.90;;;;;;4933415;29;20031;-81
2022/11/17 09:41:52;;;;;;;5.53;4.50;;;6.80;99.90;;;;;;4956657;28;20033;-81
2022/11/17 09:44:33;;;;;;;5.72;3.70;;;6.70;99.90;;;;;;4952091;28;20042;-81
2022/11/17 09:47:09;;;;;;;4.97;3.53;;;7.20;99.90;;;;;;4950229;28;20239;-82
2022/11/17 09:49:48;;;;;;;4.60;3.88;;;7.20;99.90;;;;;;4966078;28;20199;-82
2022/11/17 09:52:35;;;;;;;6.28;4.40;;;7.50;99.90;;;;;;4983889;28;20199;-81
2022/11/17 09:55:07;;;;;;;5.20;4.57;;;6.70;99.90;;;;;;4961546;28;20089;-80
2022/11/17 09:57:44;;;;;;;7.07;5.30;;;7.20;99.90;;;;;;4963305;28;20317;-81
2022/11/17 10:00:14;;;;;;;7.53;5.15;;;7.20;99.90;;;;;;4975596;28;20030;-80
2022/11/17 10:02:41;;;;;;;5.40;4.25;;;7.30;99.90;;;;;;4952647;28;20298;-82
2022/11/17 10:05:26;;;;;;;6.22;4.38;;;7.50;99.90;;;;;;4950662;28;20039;-81
2022/11/17 10:07:58;;;;;;;5.47;4.10;;;6.90;99.90;;;;;;4955977;28;20098;-80
2022/11/17 10:10:48;;;;;;;7.18;5.05;;;6.80;99.90;;;;;;4955130;28;20027;-81
2022/11/17 10:13:30;;;;;;;5.82;3.38;;;7.20;99.90;;;;;;4984215;28;20260;-80
2022/11/17 10:16:04;;;;;;;6.00;4.78;;;5.70;99.90;;;;;;4958951;28;20381;-81
2022/11/17 10:18:35;;;;;;;6.45;4.35;;;6.70;99.90;;;;;;4941120;29;20055;-81
2022/11/17 10:21:04;;;;;;;6.60;4.43;;;6.60;99.90;;;;;;4948820;29;20042;-80
2022/11/17 10:23:44;;;;;;;5.75;4.70;;;7.20;99.90;;;;;;4935857;29;20039;-81
2022/11/17 10:26:13;;;;;;;6.03;4.22;;;7.20;99.90;;;;;;4950022;29;20043;-80
2022/11/17 10:28:41;;;;;;;5.93;4.20;;;7.20;99.90;;;;;;4930041;29;20039;-81
2022/11/17 10:31:16;;;;;;;5.53;4.35;;;7.10;99.90;;;;;;4945426;29;20035;-80
2022/11/17 10:33:48;;;;;;;5.57;4.30;;;6.70;99.90;;;;;;4925788;29;20039;-81
2022/11/17 10:36:18;;;;;;;7.28;4.47;;;7.00;99.90;;;;;;4944670;29;20046;-82
2022/11/17 10:38:53;;;;;;;6.30;4.85;;;6.90;99.90;;;;;;4950751;29;20221;-81
2022/11/17 10:41:22;;;;;;;;;;;7.10;99.90;;;;;;4934330;29;20039;-80
2022/11/17 10:44:04;;;;;;;5.72;3.72;;;7.10;99.90;;;;;;4941537;29;19926;-81
2022/11/17 10:46:30;;;;;;;6.25;4.40;;;7.20;99.90;;;;;;4947054;29;20102;-81
2022/11/17 10:48:59;;;;;;;5.70;4.30;;;6.70;99.90;;;;;;4928679;29;20035;-81
2022/11/17 10:51:27;;;;;;;4.82;4.30;;;7.10;99.90;;;;;;4946586;29;20031;-83
2022/11/17 10:54:05;;;;;;;5.45;4.03;;;7.10;99.90;;;;;;4927721;29;20039;-83
2022/11/17 10:56:37;;;;;;;9.57;4.57;;;6.80;99.90;;;;;;4928844;29;20040;-81
2022/11/17 10:59:11;;;;;;;6.07;4.05;;;7.00;99.90;;;;;;4930781;28;20087;-83
2022/11/17 11:01:43;;;;;;;7.60;6.18;;;7.20;99.90;;;;;;4949131;29;20032;-82
2022/11/17 11:04:40;;;;;;;6.40;4.70;;;7.10;99.90;;;;;;4949357;28;21728;-82
2022/11/17 11:07:19;;;;;;;5.80;4.05;;;7.20;99.90;;;;;;4945806;29;20098;-84
2022/11/17 11:10:35;;;;;;;5.65;4.18;;;5.70;99.90;;;;;;4944992;29;20042;-83
2022/11/17 11:13:20;;;;;;;;;;;6.10;99.90;;;;;;4973631;28;20338;-83
2022/11/17 11:15:46;;;;;;;7.75;6.15;;;7.20;99.90;;;;;;4930148;29;19950;-84
2022/11/17 11:18:15;;;;;;;8.07;5.55;;;6.90;99.90;;;;;;4929292;29;20061;-84
2022/11/17 11:21:01;;;;;;;6.88;4.03;;;5.70;99.90;;;;;;4972820;28;20082;-83
2022/11/17 11:23:43;;;;;;;6.97;4.25;;;6.70;99.90;;;;;;4963156;29;20321;-86
2022/11/17 11:26:14;;;;;;;9.55;6.32;;;7.30;99.90;;;;;;4957651;28;20040;-83
2022/11/17 11:29:03;;;;;;;6.78;5.15;;;7.20;99.90;;;;;;4955868;28;20128;-80
2022/11/17 11:31:51;;;;;;;6.78;4.63;;;7.30;99.90;;;;;;4954759;29;20055;-82
2022/11/17 11:34:51;;;;;;;7.75;5.47;;;7.80;99.90;;;;;;4951152;28;20062;-82
2022/11/17 11:37:16;;;;;;;6.65;5.57;;;6.80;99.90;;;;;;4966822;28;20034;-81
2022/11/17 11:39:53;;;;;;;9.85;6.72;;;7.20;99.90;;;;;;4947959;29;20090;-82
2022/11/17 11:42:42;;;;;;;9.77;7.55;;;6.90;99.90;;;;;;4963608;29;20318;-82
2022/11/17 11:45:30;;;;;;;8.07;5.93;;;6.90;99.90;;;;;;4966078;28;20214;-81
2022/11/17 11:48:24;;;;;;;6.45;5.75;;;7.10;99.90;;;;;;4966923;28;20101;-81
2022/11/17 11:51:07;;;;;;;7.20;5.30;;;6.60;99.90;;;;;;4973046;28;20187;-80
2022/11/17 11:53:45;;;;;;;9.48;7.03;;;6.60;99.90;;;;;;4972803;28;20033;-82
2022/11/17 11:56:16;;;;;;;9.00;6.70;;;6.80;99.90;;;;;;4953573;28;20061;-82
2022/11/17 11:59:14;;;;;;;6.78;5.35;;;7.20;99.90;;;;;;4947845;29;20039;-81
2022/11/17 12:02:14;;;;;;;10.30;6.85;;;6.90;99.90;;;;;;4963949;28;20225;-82
2022/11/17 12:05:15;;;;;;;9.25;6.60;;;7.20;99.90;;;;;;4944934;29;20298;-81
2022/11/17 12:07:56;;;;;;;13.88;11.30;;;7.30;99.90;;;;;;4937373;28;20106;-82
2022/11/17 12:10:34;;;;;;;8.05;5.50;;;7.40;99.90;;;;;;4949057;28;20278;-82
2022/11/17 12:13:40;;;;;;;7.10;5.45;;;7.40;99.90;;;;;;4977473;28;20329;-82
2022/11/17 12:16:17;;;;;;;9.60;6.38;;;6.70;99.90;;;;;;4945806;28;20044;-82
2022/11/17 12:18:50;;;;;;;9.73;7.45;;;7.20;99.90;;;;;;4961516;28;20277;-81
2022/11/17 12:21:24;;;;;;;7.70;5.32;;;7.30;99.90;;;;;;4963156;29;20039;-81
2022/11/17 12:23:59;;;;;;;5.60;4.63;;;6.90;99.90;;;;;;4960944;29;20031;-81
2022/11/17 12:26:30;;;;;;;7.93;5.97;;;7.30;99.90;;;;;;4951947;29;20031;-81
2022/11/17 12:29:33;;;;;;;6.95;5.32;;;7.20;99.90;;;;;;4979086;28;20035;-80
2022/11/17 12:32:01;;;;;;;7.85;5.18;;;6.80;99.90;;;;;;4949223;28;20062;-81
2022/11/17 12:34:35;;;;;;;9.80;6.55;;;7.20;99.90;;;;;;4941653;29;20043;-81
2022/11/17 12:37:43;;;;;;;9.88;7.20;;;7.00;99.90;;;;;;4957148;29;20028;-82
2022/11/17 12:40:59;;;;;;;;;;;;;;;;;;;;;
2022/11/17 12:43:41;;;;;;;;;;;;;;;;;;;;;
2022/11/17 12:46:54;;;;;;;5.95;4.50;;;6.80;99.90;;;;;;4945212;29;20031;-83
2022/11/17 12:50:18;;;;;;;10.63;7.03;;;7.50;99.90;;;;;;4946797;29;20057;-82
2022/11/17 12:53:07;;;;;;;6.60;5.10;;;7.00;99.90;;;;;;4937096;29;20042;-84
2022/11/17 12:55:57;;;;;;;9.65;6.60;;;7.00;99.90;;;;;;4942964;29;20057;-82
2022/11/17 12:58:42;;;;;;;7.63;5.03;;;7.50;99.90;;;;;;4974218;28;20058;-83
2022/11/17 13:01:37;;;;;;;7.30;4.95;;;7.00;99.90;;;;;;4962862;29;20027;-81
2022/11/17 13:04:20;;;;;;;7.43;5.63;;;7.20;99.90;;;;;;4960450;29;20131;-84
2022/11/17 13:07:05;;;;;;;7.63;4.38;;;7.60;99.90;;;;;;4957908;29;20058;-78
2022/11/17 13:09:35;;;;;;;5.17;3.77;;;7.50;99.90;;;;;;4946290;29;20031;-80
2022/11/17 13:12:04;;;;;;;6.43;4.32;;;7.60;99.90;;;;;;4946340;29;20481;-84
2022/11/17 13:14:31;;;;;;;6.25;4.22;;;7.60;99.90;;;;;;4938722;29;20033;-80
2022/11/17 13:16:58;;;;;;;8.63;6.38;;;7.10;99.90;;;;;;4926968;29;20027;-81
2022/11/17 13:19:40;;;;;;;6.80;4.93;;;7.70;99.90;;;;;;4954893;28;20063;-83
2022/11/17 13:22:17;;;;;;;5.75;4.68;;;7.00;99.90;;;;;;4951234;28;20078;-82
2022/11/17 13:28:45;;;;;;;6.53;4.95;;;7.80;99.90;;;;;;4943383;28;20065;-81
2022/11/17 13:31:24;;;;;;;8.38;5.78;;;7.20;99.90;;;;;;4952822;28;20027;-81
2022/11/17 13:34:11;;;;;;;8.68;5.47;;;7.80;99.90;;;;;;4965124;28;20318;-87
2022/11/17 13:36:58;;;;;;;7.63;5.13;;;7.90;99.90;;;;;;4980409;28;20043;-79
2022/11/17 13:39:25;;;;;;;6.50;5.13;;;7.20;99.90;;;;;;4956010;28;20038;-81
2022/11/17 13:41:52;;;;;;;5.18;4.40;;;7.10;99.90;;;;;;4965661;28;20073;-84
2022/11/17 13:44:24;;;;;;;7.22;5.25;;;7.90;99.90;;;;;;4951168;28;20041;-84
2022/11/17 13:47:03;;;;;;;7.30;5.60;;;7.90;99.90;;;;;;4959404;29;20110;-82
2022/11/17 13:51:00;;;;;;;6.75;4.78;;;8.00;99.90;;;;;;4969253;28;20046;-85
2022/11/17 13:53:44;;;;;;;5.20;3.35;;;7.40;99.90;;;;;;4933446;28;20042;-84
2022/11/17 13:56:45;;;;;;;6.25;4.80;;;8.80;99.90;;;;;;4979850;28;20031;-82
2022/11/17 13:59:22;;;;;;;7.05;4.13;;;7.60;99.90;;;;;;4940712;29;20106;-81
2022/11/17 14:01:47;;;;;;;5.55;4.22;;;7.70;99.90;;;;;;4961217;28;20335;-80
2022/11/17 14:04:20;;;;;;;7.88;6.43;;;7.20;99.90;;;;;;4947768;29;20039;-83
2022/11/17 14:06:55;;;;;;;7.68;6.35;;;7.10;99.90;;;;;;4949285;29;20046;-83
2022/11/17 14:09:21;;;;;;;;;;;7.80;99.90;;;;;;4982403;28;20062;-83
2022/11/17 14:11:47;;;;;;;8.05;7.03;;;7.70;99.90;;;;;;4970685;28;19918;-81
2022/11/17 14:14:35;;;;;;;7.70;6.47;;;8.20;99.90;;;;;;4981945;28;20070;-85
2022/11/17 14:17:17;;;;;;;9.50;6.55;;;7.50;99.90;;;;;;4943029;28;20027;-83
2022/11/17 14:19:43;;;;;;;4.90;3.92;;;7.70;99.90;;;;;;4946193;28;20065;-80
2022/11/17 14:22:09;;;;;;;5.05;3.88;;;7.10;99.90;;;;;;4958661;29;20051;-81
2022/11/17 14:24:35;;;;;;;4.45;3.63;;;7.20;99.90;;;;;;4975041;28;20336;-82
2022/11/17 14:27:01;;;;;;;5.35;4.40;;;7.70;99.90;;;;;;4967871;28;20034;-80
2022/11/17 14:29:28;;;;;;;5.35;4.43;;;7.10;99.90;;;;;;4948162;29;20046;-83
2022/11/17 14:31:54;;;;;;;5.82;4.57;;;7.60;99.90;;;;;;4945553;28;20030;-84
2022/11/17 14:34:26;;;;;;;6.72;4.95;;;7.80;99.90;;;;;;4958593;29;20047;-83
2022/11/17 14:36:54;;;;;;;6.18;4.40;;;7.10;99.90;;;;;;4965029;28;20142;-83
2022/11/17 14:39:27;;;;;;;6.43;4.85;;;7.80;99.90;;;;;;4932128;29;20049;-86